createdAt,value
2024-02-21T00:00:59.927Z,97052.06
2024-02-21T00:03:27.101Z,97049.41
2024-02-21T00:05:54.169Z,97048.59
2024-02-21T00:08:21.417Z,97038.97
2024-02-21T00:10:48.740Z,97043.28
2024-02-21T00:13:15.975Z,97035.50
2024-02-21T00:15:43.082Z,97025.88
2024-02-21T00:18:12.135Z,97024.22
2024-02-21T00:20:39.376Z,97025.28
2024-02-21T00:23:06.496Z,97029.53
2024-02-21T00:25:33.774Z,97020.97
2024-02-21T00:28:00.918Z,97019.13
2024-02-21T00:30:28.667Z,97017.28
2024-02-21T00:32:56.264Z,97014.81
2024-02-21T00:35:23.470Z,97019.94
2024-02-21T00:37:50.626Z,97012.56
2024-02-21T00:40:21.234Z,97007.44
2024-02-21T00:42:48.488Z,97008.25
2024-02-21T00:45:15.680Z,97001.72
2024-02-21T00:47:42.801Z,97003.75
2024-02-21T00:50:10.978Z,96996.59
2024-02-21T00:52:38.292Z,97000.50
2024-02-21T00:55:05.773Z,97003.16
2024-02-21T00:57:33.069Z,96996.78
2024-02-21T01:00:00.261Z,96994.34
2024-02-21T01:02:27.664Z,96994.75
2024-02-21T01:04:54.959Z,96992.28
2024-02-21T01:07:22.301Z,96989.44
2024-02-21T01:09:49.590Z,96984.72
2024-02-21T01:12:16.782Z,96980.22
2024-02-21T01:14:43.925Z,96975.91
2024-02-21T01:17:11.030Z,96979.41
2024-02-21T01:19:38.377Z,96970.59
2024-02-21T01:22:05.576Z,96963.66
2024-02-21T01:24:32.668Z,96954.66
2024-02-21T01:26:59.808Z,96938.69
2024-02-21T01:29:26.913Z,96936.63
2024-02-21T01:31:54.051Z,96929.28
2024-02-21T01:34:21.463Z,96917.81
2024-02-21T01:36:48.637Z,96897.97
2024-02-21T01:39:15.740Z,96894.06
2024-02-21T01:41:42.830Z,96888.34
2024-02-21T01:44:10.025Z,96877.72
2024-02-21T01:46:37.640Z,96877.72
2024-02-21T01:49:06.282Z,96868.91
2024-02-21T01:51:33.666Z,96864.44
2024-02-21T01:54:00.861Z,96848.88
2024-02-21T01:56:28.185Z,96839.28
2024-02-21T01:58:56.781Z,96844.16
2024-02-21T02:01:24.234Z,96827.00
2024-02-21T02:03:52.122Z,96824.94
2024-02-21T02:06:19.418Z,96819.03
2024-02-21T02:08:46.540Z,96814.09
2024-02-21T02:11:17.146Z,96800.59
2024-02-21T02:13:45.056Z,96789.97
2024-02-21T02:16:12.263Z,96779.13
2024-02-21T02:18:39.500Z,96763.19
2024-02-21T02:21:11.892Z,96745.38
2024-02-21T02:23:39.184Z,96723.88
2024-02-21T02:26:08.439Z,96705.06
2024-02-21T02:28:35.586Z,96673.75
2024-02-21T02:31:02.752Z,96655.97
2024-02-21T02:33:29.927Z,96653.09
2024-02-21T02:35:57.145Z,96643.47
2024-02-21T02:38:24.196Z,96628.72
2024-02-21T02:40:51.315Z,96608.06
2024-02-21T02:43:18.418Z,96588.63
2024-02-21T02:45:45.482Z,96583.91
2024-02-21T02:48:12.649Z,96565.88
2024-02-21T02:50:39.849Z,96545.66
2024-02-21T02:53:06.984Z,96530.28
2024-02-21T02:55:37.374Z,96515.94
2024-02-21T02:58:04.548Z,96500.00
2024-02-21T03:00:31.841Z,96476.88
2024-02-21T03:02:59.133Z,96462.75
2024-02-21T03:05:26.381Z,96451.28
2024-02-21T03:07:53.602Z,96447.59
2024-02-21T03:10:20.951Z,96442.09
2024-02-21T03:12:48.163Z,96434.09
2024-02-21T03:15:15.623Z,96427.75
2024-02-21T03:17:43.052Z,96414.25
2024-02-21T03:20:11.759Z,96412.00
2024-02-21T03:22:40.555Z,96404.25
2024-02-21T03:25:08.453Z,96396.25
2024-02-21T03:27:36.067Z,96397.28
2024-02-21T03:30:03.620Z,96398.09
2024-02-21T03:32:31.031Z,96402.59
2024-02-21T03:34:58.323Z,96408.38
2024-02-21T03:37:26.258Z,96408.78
2024-02-21T03:39:53.398Z,96419.88
2024-02-21T03:42:20.487Z,96424.38
2024-02-21T03:44:47.586Z,96428.88
2024-02-21T03:47:14.633Z,96431.91
2024-02-21T03:49:41.827Z,96435.84
2024-02-21T03:52:09.447Z,96440.91
2024-02-21T03:54:36.610Z,96451.34
2024-02-21T03:57:03.885Z,96458.72
2024-02-21T03:59:31.024Z,96469.16
2024-02-21T04:01:58.337Z,96472.00
2024-02-21T04:04:25.654Z,96460.81
2024-02-21T04:06:52.842Z,96476.31
2024-02-21T04:09:20.010Z,96478.38
2024-02-21T04:11:47.270Z,96483.25
2024-02-21T04:14:14.439Z,96496.56
2024-02-21T04:16:41.753Z,96502.91
2024-02-21T04:19:09.474Z,96504.97
2024-02-21T04:21:36.998Z,96521.75
2024-02-21T04:24:07.037Z,96530.75
2024-02-21T04:26:34.966Z,96530.97
2024-02-21T04:29:02.638Z,96531.19
2024-02-21T04:31:30.326Z,96529.75
2024-02-21T04:33:57.745Z,96528.16
2024-02-21T04:36:25.020Z,96546.31
2024-02-21T04:38:52.355Z,96539.34
2024-02-21T04:41:19.470Z,96538.78
2024-02-21T04:43:49.643Z,96543.06
2024-02-21T04:46:17.152Z,96553.50
2024-02-21T04:48:44.477Z,96560.66
2024-02-21T04:51:12.794Z,96558.22
2024-02-21T04:53:39.882Z,96552.53
2024-02-21T04:56:07.262Z,96548.44
2024-02-21T04:58:34.409Z,96549.69
2024-02-21T05:01:01.574Z,96551.13
2024-02-21T05:03:28.764Z,96552.16
2024-02-21T05:05:57.190Z,96564.22
2024-02-21T05:08:24.404Z,96554.41
2024-02-21T05:10:51.587Z,96578.69
2024-02-21T05:13:18.799Z,96574.44
2024-02-21T05:15:45.906Z,96587.94
2024-02-21T05:18:13.078Z,96582.41
2024-02-21T05:20:40.305Z,96588.34
2024-02-21T05:23:07.537Z,96604.69
2024-02-21T05:25:34.657Z,96611.88
2024-02-21T05:28:04.078Z,96618.81
2024-02-21T05:30:31.194Z,96625.75
2024-02-21T05:32:58.684Z,96634.75
2024-02-21T05:35:27.020Z,96640.31
2024-02-21T05:37:54.246Z,96638.66
2024-02-21T05:40:21.442Z,96642.16
2024-02-21T05:42:48.557Z,96648.66
2024-02-21T05:45:16.696Z,96668.72
2024-02-21T05:47:43.915Z,96661.16
2024-02-21T05:50:11.180Z,96662.19
2024-02-21T05:52:38.393Z,96670.78
2024-02-21T05:55:07.462Z,96678.97
2024-02-21T05:57:34.569Z,96679.56
2024-02-21T06:00:04.107Z,96677.31
2024-02-21T06:02:39.601Z,96674.47
2024-02-21T06:05:08.928Z,96682.22
2024-02-21T06:07:36.233Z,96673.47
2024-02-21T06:10:04.073Z,96687.78
2024-02-21T06:12:31.366Z,96693.47
2024-02-21T06:14:58.430Z,96701.88
2024-02-21T06:17:25.815Z,96719.84
2024-02-21T06:19:52.990Z,96742.94
2024-02-21T06:22:20.189Z,96759.53
2024-02-21T06:24:47.292Z,96775.47
2024-02-21T06:27:17.256Z,96798.94
2024-02-21T06:29:44.373Z,96802.44
2024-02-21T06:32:11.494Z,96816.97
2024-02-21T06:34:38.895Z,96817.97
2024-02-21T06:37:06.258Z,96827.34
2024-02-21T06:39:33.376Z,96847.78
2024-02-21T06:42:03.566Z,96861.31
2024-02-21T06:44:33.020Z,96875.19
2024-02-21T06:47:00.663Z,96878.84
2024-02-21T06:49:27.999Z,96897.25
2024-02-21T06:51:55.178Z,96910.75
2024-02-21T06:54:22.348Z,96927.91
2024-02-21T06:56:49.408Z,96948.00
2024-02-21T06:59:17.389Z,96960.84
2024-02-21T07:01:51.323Z,96987.03
2024-02-21T07:04:18.640Z,97006.84
2024-02-21T07:06:46.872Z,97029.16
2024-02-21T07:09:14.064Z,97036.31
2024-02-21T07:11:41.226Z,97051.25
2024-02-21T07:14:08.391Z,97066.81
2024-02-21T07:16:36.030Z,97078.06
2024-02-21T07:19:03.698Z,97079.50
2024-02-21T07:21:30.830Z,97089.94
2024-02-21T07:23:58.503Z,97092.59
2024-02-21T07:26:25.633Z,97094.03
2024-02-21T07:28:52.814Z,97086.06
2024-02-21T07:31:19.931Z,97080.94
2024-02-21T07:33:47.075Z,97075.22
2024-02-21T07:36:16.292Z,97083.81
2024-02-21T07:38:43.405Z,97081.78
2024-02-21T07:41:10.648Z,97081.38
2024-02-21T07:43:37.855Z,97077.97
2024-02-21T07:46:05.596Z,97081.47
2024-02-21T07:48:35.374Z,97089.69
2024-02-21T07:51:03.054Z,97094.44
2024-02-21T07:53:30.150Z,97114.56
2024-02-21T07:55:57.302Z,97132.41
2024-02-21T07:58:24.476Z,97130.38
2024-02-21T08:00:51.716Z,97146.81
2024-02-21T08:03:19.130Z,97158.50
2024-02-21T08:05:46.443Z,97171.59
2024-02-21T08:08:19.348Z,97145.16
2024-02-21T08:10:46.973Z,97113.53
2024-02-21T08:13:14.154Z,97073.09
2024-02-21T08:15:42.793Z,97043.69
2024-02-21T08:18:10.307Z,97001.38
2024-02-21T08:20:37.465Z,96953.50
2024-02-21T08:23:04.703Z,96890.13
2024-02-21T08:25:31.917Z,96818.00
2024-02-21T08:28:00.411Z,96751.53
2024-02-21T08:30:27.663Z,96663.88
2024-02-21T08:32:57.856Z,96590.34
2024-02-21T08:35:26.967Z,96500.41
2024-02-21T08:37:54.342Z,96381.09
2024-02-21T08:40:22.914Z,96283.00
2024-02-21T08:42:50.970Z,96200.19
2024-02-21T08:45:18.181Z,96138.38
2024-02-21T08:47:48.183Z,96071.06
2024-02-21T08:50:23.503Z,96025.47
2024-02-21T08:52:56.069Z,96101.44
2024-02-21T08:55:23.362Z,96256.56
2024-02-21T08:57:51.492Z,96395.72
2024-02-21T09:00:18.798Z,96482.66
2024-02-21T09:02:46.189Z,96552.41
2024-02-21T09:05:13.641Z,96583.56
2024-02-21T09:07:40.921Z,96589.25
2024-02-21T09:10:08.365Z,96585.91
2024-02-21T09:12:35.627Z,96579.25
2024-02-21T09:15:02.768Z,96587.38
2024-02-21T09:17:30.903Z,96580.44
2024-02-21T09:20:00.790Z,96559.03
2024-02-21T09:22:28.529Z,96551.22
2024-02-21T09:24:55.719Z,96540.31
2024-02-21T09:27:23.546Z,96522.97
2024-02-21T09:29:50.936Z,96500.06
2024-02-21T09:32:20.192Z,96485.97
2024-02-21T09:34:47.577Z,96463.31
2024-02-21T09:37:14.935Z,96442.59
2024-02-21T09:39:42.083Z,96416.13
2024-02-21T09:42:12.317Z,96397.28
2024-02-21T09:44:39.775Z,96364.00
2024-02-21T09:47:25.632Z,96344.50
2024-02-21T09:49:53.538Z,96330.34
2024-02-21T09:52:21.808Z,96311.22
2024-02-21T09:54:50.064Z,96305.78
2024-02-21T09:57:17.539Z,96282.53
2024-02-21T09:59:46.794Z,96262.84
2024-02-21T10:02:14.071Z,96249.00
2024-02-21T10:04:41.918Z,96234.97
2024-02-21T10:07:09.056Z,96222.06
2024-02-21T10:09:36.189Z,96195.41
2024-02-21T10:12:13.791Z,96179.19
2024-02-21T10:14:41.689Z,96163.25
2024-02-21T10:17:11.735Z,96138.03
2024-02-21T10:19:41.337Z,96128.91
2024-02-21T10:22:09.566Z,96118.69
2024-02-21T10:24:39.213Z,96105.25
2024-02-21T10:27:09.763Z,96095.69
2024-02-21T10:29:37.021Z,96072.25
2024-02-21T10:32:07.305Z,96072.78
2024-02-21T10:34:35.226Z,96074.28
2024-02-21T10:37:05.995Z,96063.09
2024-02-21T10:39:34.086Z,96053.44
2024-02-21T10:42:05.274Z,96044.66
2024-02-21T10:44:33.871Z,96050.34
2024-02-21T10:47:05.878Z,96035.69
2024-02-21T10:49:33.957Z,96030.06
2024-02-21T10:52:06.746Z,96027.72
2024-02-21T10:54:48.815Z,96022.69
2024-02-21T10:57:16.483Z,96016.03
2024-02-21T10:59:44.132Z,96016.84
2024-02-21T11:02:11.553Z,96021.41
2024-02-21T11:04:39.661Z,96024.56
2024-02-21T11:07:10.937Z,96038.88
2024-02-21T11:09:38.954Z,96045.63
2024-02-21T11:12:07.191Z,96040.44
2024-02-21T11:14:36.729Z,96038.91
2024-02-21T11:17:05.183Z,96031.97
2024-02-21T11:19:32.639Z,96025.78
2024-02-21T11:22:04.748Z,96021.50
2024-02-21T11:24:33.272Z,96030.59
2024-02-21T11:27:11.164Z,96025.47
2024-02-21T11:29:45.064Z,96013.69
2024-02-21T11:32:13.452Z,96005.94
2024-02-21T11:34:43.858Z,96000.56
2024-02-21T11:37:15.132Z,96007.88
2024-02-21T11:39:42.381Z,95990.97
2024-02-21T11:42:10.147Z,95982.66
2024-02-21T11:44:44.012Z,95982.09
2024-02-21T11:47:11.307Z,95985.84
2024-02-21T11:49:40.632Z,95973.53
2024-02-21T11:52:08.193Z,95979.16
2024-02-21T11:54:35.561Z,95980.47
2024-02-21T11:57:02.798Z,95980.75
2024-02-21T11:59:33.194Z,95969.22
2024-02-21T12:02:01.498Z,95962.50
2024-02-21T12:04:29.840Z,95971.09
2024-02-21T12:06:58.013Z,95970.00
2024-02-21T12:09:25.717Z,95954.94
2024-02-21T12:12:02.753Z,95954.19
2024-02-21T12:14:31.596Z,95940.97
2024-02-21T12:16:59.339Z,95936.97
2024-02-21T12:19:26.677Z,95940.47
2024-02-21T12:21:56.214Z,95941.22
2024-02-21T12:24:24.254Z,95933.47
2024-02-21T12:26:53.219Z,95937.22
2024-02-21T12:29:20.737Z,95933.75
2024-02-21T12:31:48.647Z,95924.34
2024-02-21T12:34:17.697Z,95917.09
2024-02-21T12:36:48.288Z,95924.66
2024-02-21T12:39:15.851Z,95919.53
2024-02-21T12:41:45.223Z,95913.63
2024-02-21T12:44:12.694Z,95906.13
2024-02-21T12:46:40.955Z,95902.06
2024-02-21T12:49:11.326Z,95899.91
2024-02-21T12:51:39.132Z,95894.50
2024-02-21T12:54:06.261Z,95894.78
2024-02-21T12:56:33.367Z,95888.09
2024-02-21T12:59:00.702Z,95893.47
2024-02-21T13:01:28.808Z,95885.16
2024-02-21T13:03:56.993Z,95877.38
2024-02-21T13:06:25.513Z,95869.28
2024-02-21T13:08:52.659Z,95867.94
2024-02-21T13:11:20.138Z,95868.50
2024-02-21T13:13:47.280Z,95859.91
2024-02-21T13:16:14.429Z,95857.78
2024-02-21T13:18:44.083Z,95855.06
2024-02-21T13:21:11.881Z,95846.44
2024-02-21T13:23:39.025Z,95840.53
2024-02-21T13:26:06.618Z,95841.63
2024-02-21T13:28:33.844Z,95834.41
2024-02-21T13:31:01.035Z,95834.69
2024-02-21T13:33:29.996Z,95822.59
2024-02-21T13:35:57.188Z,95826.13
2024-02-21T13:38:25.346Z,95824.75
2024-02-21T13:40:52.582Z,95826.63
2024-02-21T13:43:19.749Z,95825.84
2024-02-21T13:45:57.006Z,95818.84
2024-02-21T13:48:24.366Z,95814.28
2024-02-21T13:50:51.577Z,95812.13
2024-02-21T13:53:22.394Z,95809.97
2024-02-21T13:55:49.912Z,95802.44
2024-02-21T13:58:17.539Z,95810.50
2024-02-21T14:00:44.702Z,95802.44
2024-02-21T14:03:11.999Z,95809.66
2024-02-21T14:05:43.054Z,95802.13
2024-02-21T14:08:10.889Z,95797.31
2024-02-21T14:10:38.592Z,95784.97
2024-02-21T14:13:05.964Z,95788.97
2024-02-21T14:15:33.478Z,95781.47
2024-02-21T14:18:00.694Z,95778.50
2024-02-21T14:20:27.994Z,95780.91
2024-02-21T14:22:55.201Z,95785.19
2024-02-21T14:25:22.315Z,95781.72
2024-02-21T14:27:49.464Z,95776.06
2024-02-21T14:30:16.658Z,95778.72
2024-02-21T14:32:45.240Z,95775.47
2024-02-21T14:35:12.532Z,95777.88
2024-02-21T14:37:39.684Z,95763.94
2024-02-21T14:40:07.129Z,95766.91
2024-02-21T14:42:35.314Z,95761.25
2024-02-21T14:45:05.897Z,95768.47
2024-02-21T14:47:34.272Z,95768.72
2024-02-21T14:50:02.695Z,95758.00
2024-02-21T14:52:30.646Z,95763.13
2024-02-21T14:54:58.107Z,95760.97
2024-02-21T14:57:26.175Z,95747.53
2024-02-21T15:00:00.017Z,95748.66
2024-02-21T15:02:29.241Z,95748.91
2024-02-21T15:04:57.156Z,95742.50
2024-02-21T15:07:28.162Z,95747.28
2024-02-21T15:09:55.515Z,95736.31
2024-02-21T15:12:24.426Z,95739.53
2024-02-21T15:14:52.638Z,95736.88
2024-02-21T15:17:20.081Z,95734.19
2024-02-21T15:19:48.673Z,95726.66
2024-02-21T15:22:16.966Z,95727.47
2024-02-21T15:24:44.108Z,95736.00
2024-02-21T15:27:11.301Z,95730.38
2024-02-21T15:29:38.406Z,95718.56
2024-02-21T15:32:05.896Z,95723.13
2024-02-21T15:34:33.334Z,95720.97
2024-02-21T15:37:01.159Z,95717.50
2024-02-21T15:39:28.652Z,95712.66
2024-02-21T15:41:56.264Z,95714.53
2024-02-21T15:44:23.439Z,95704.91
2024-02-21T15:46:52.002Z,95715.31
2024-02-21T15:49:19.480Z,95709.69
2024-02-21T15:51:46.680Z,95698.69
2024-02-21T15:54:17.399Z,95692.81
2024-02-21T15:56:46.513Z,95687.97
2024-02-21T15:59:13.864Z,95694.38
2024-02-21T16:01:41.894Z,95687.41
2024-02-21T16:04:09.045Z,95689.28
2024-02-21T16:06:36.344Z,95685.19
2024-02-21T16:09:06.206Z,95675.03
2024-02-21T16:11:33.751Z,95670.16
2024-02-21T16:14:04.235Z,95665.06
2024-02-21T16:16:31.862Z,95670.13
2024-02-21T16:18:59.239Z,95679.22
2024-02-21T16:21:28.087Z,95674.97
2024-02-21T16:23:55.665Z,95670.13
2024-02-21T16:26:22.904Z,95670.66
2024-02-21T16:28:50.860Z,95669.03
2024-02-21T16:31:18.077Z,95670.38
2024-02-21T16:33:45.353Z,95666.34
2024-02-21T16:36:25.392Z,95670.31
2024-02-21T16:38:52.977Z,95664.16
2024-02-21T16:41:22.313Z,95670.84
2024-02-21T16:43:49.648Z,95661.97
2024-02-21T16:46:17.059Z,95657.09
2024-02-21T16:48:44.456Z,95652.47
2024-02-21T16:51:11.919Z,95650.84
2024-02-21T16:53:39.614Z,95644.09
2024-02-21T16:56:07.093Z,95641.94
2024-02-21T16:58:38.060Z,95644.09
2024-02-21T17:01:13.078Z,95641.91
2024-02-21T17:03:41.840Z,95628.75
2024-02-21T17:06:15.642Z,95636.19
2024-02-21T17:08:45.892Z,95630.59
2024-02-21T17:11:13.958Z,95630.50
2024-02-21T17:13:43.034Z,95631.00
2024-02-21T17:16:12.260Z,95622.63
2024-02-21T17:18:40.661Z,95624.47
2024-02-21T17:21:08.326Z,95617.25
2024-02-21T17:23:36.450Z,95616.16
2024-02-21T17:26:04.064Z,95621.81
2024-02-21T17:28:32.373Z,95621.88
2024-02-21T17:30:59.797Z,95626.69
2024-02-21T17:33:27.583Z,95635.28
2024-02-21T17:35:55.167Z,95622.97
2024-02-21T17:38:22.776Z,95618.63
2024-02-21T17:40:51.864Z,95617.00
2024-02-21T17:43:19.721Z,95613.50
2024-02-21T17:45:47.039Z,95603.31
2024-02-21T17:48:14.404Z,95598.50
2024-02-21T17:50:41.679Z,95594.97
2024-02-21T17:53:09.026Z,95572.50
2024-02-21T17:55:36.397Z,95568.44
2024-02-21T17:58:03.741Z,95556.38
2024-02-21T18:00:33.753Z,95564.59
2024-02-21T18:03:01.740Z,95554.16
2024-02-21T18:05:30.535Z,95549.59
2024-02-21T18:07:58.042Z,95550.41
2024-02-21T18:10:25.221Z,95546.94
2024-02-21T18:12:52.446Z,95550.91
2024-02-21T18:15:19.525Z,95550.91
2024-02-21T18:17:46.785Z,95547.19
2024-02-21T18:20:14.034Z,95554.13
2024-02-21T18:22:41.259Z,95561.09
2024-02-21T18:25:09.869Z,95564.25
2024-02-21T18:27:37.295Z,95559.19
2024-02-21T18:30:05.295Z,95561.06
2024-02-21T18:32:32.576Z,95559.13
2024-02-21T18:35:00.012Z,95569.53
2024-02-21T18:37:27.398Z,95569.53
2024-02-21T18:39:55.537Z,95569.53
2024-02-21T18:42:22.591Z,95574.63
2024-02-21T18:44:51.297Z,95562.84
2024-02-21T18:47:18.500Z,95558.31
2024-02-21T18:49:45.664Z,95562.81
2024-02-21T18:52:12.823Z,95548.88
2024-02-21T18:54:41.634Z,95527.47
2024-02-21T18:57:09.242Z,95532.22
2024-02-21T18:59:36.581Z,95531.66
2024-02-21T19:02:03.717Z,95524.44
2024-02-21T19:04:31.026Z,95524.22
2024-02-21T19:06:58.180Z,95522.88
2024-02-21T19:09:25.289Z,95518.34
2024-02-21T19:11:52.581Z,95523.44
2024-02-21T19:14:19.692Z,95524.00
2024-02-21T19:16:46.748Z,95529.34
2024-02-21T19:19:13.985Z,95541.09
2024-02-21T19:21:43.455Z,95541.91
2024-02-21T19:24:10.518Z,95518.69
2024-02-21T19:26:37.589Z,95521.38
2024-02-21T19:29:06.112Z,95519.75
2024-02-21T19:31:33.317Z,95519.75
2024-02-21T19:34:00.581Z,95504.25
2024-02-21T19:36:27.763Z,95483.97
2024-02-21T19:38:55.097Z,95479.91
2024-02-21T19:41:22.202Z,95494.06
2024-02-21T19:43:49.427Z,95514.38
2024-02-21T19:46:16.576Z,95515.19
2024-02-21T19:48:43.780Z,95504.50
2024-02-21T19:51:10.996Z,95503.19
2024-02-21T19:53:38.130Z,95496.50
2024-02-21T19:56:07.358Z,95490.66
2024-02-21T19:58:34.620Z,95480.25
2024-02-21T20:01:03.514Z,95464.25
2024-02-21T20:03:31.823Z,95444.75
2024-02-21T20:05:59.051Z,95431.72
2024-02-21T20:08:26.311Z,95423.69
2024-02-21T20:10:53.620Z,95423.19
2024-02-21T20:13:20.864Z,95413.56
2024-02-21T20:15:47.992Z,95402.81
2024-02-21T20:18:15.255Z,95405.03
2024-02-21T20:20:43.034Z,95387.38
2024-02-21T20:23:15.837Z,95390.63
2024-02-21T20:25:43.239Z,95385.28
2024-02-21T20:28:12.859Z,95384.19
2024-02-21T20:30:40.189Z,95393.81
2024-02-21T20:33:08.365Z,95392.19
2024-02-21T20:35:36.219Z,95380.19
2024-02-21T20:38:04.473Z,95374.31
2024-02-21T20:40:31.838Z,95372.44
2024-02-21T20:42:58.984Z,95375.38
2024-02-21T20:45:27.184Z,95370.34
2024-02-21T20:47:54.303Z,95357.22
2024-02-21T20:50:23.127Z,95356.47
2024-02-21T20:52:50.395Z,95354.09
2024-02-21T20:55:18.231Z,95351.66
2024-02-21T20:57:45.528Z,95351.97
2024-02-21T21:00:13.111Z,95353.84
2024-02-21T21:02:40.305Z,95351.16
2024-02-21T21:05:09.158Z,95344.47
2024-02-21T21:07:39.263Z,95347.69
2024-02-21T21:10:08.556Z,95342.09
2024-02-21T21:12:36.033Z,95333.81
2024-02-21T21:15:05.843Z,95337.56
2024-02-21T21:17:33.211Z,95330.88
2024-02-21T21:20:00.577Z,95326.63
2024-02-21T21:22:29.872Z,95322.34
2024-02-21T21:24:57.719Z,95325.28
2024-02-21T21:27:27.862Z,95321.00
2024-02-21T21:29:55.029Z,95322.09
2024-02-21T21:32:22.118Z,95312.22
2024-02-21T21:34:49.176Z,95307.97
2024-02-21T21:37:19.178Z,95309.00
2024-02-21T21:39:51.057Z,95303.13
2024-02-21T21:42:18.507Z,95296.72
2024-02-21T21:44:45.975Z,95287.09
2024-02-21T21:47:13.181Z,95286.56
2024-02-21T21:49:40.383Z,95283.91
2024-02-21T21:52:07.473Z,95270.00
2024-02-21T21:54:35.285Z,95277.47
2024-02-21T21:57:02.547Z,95269.75
2024-02-21T21:59:29.720Z,95272.13
2024-02-21T22:01:57.394Z,95271.84
2024-02-21T22:04:24.671Z,95272.13
2024-02-21T22:06:51.824Z,95266.75
2024-02-21T22:09:18.980Z,95266.22
2024-02-21T22:11:46.904Z,95257.63
2024-02-21T22:14:14.145Z,95254.94
2024-02-21T22:16:41.363Z,95263.47
2024-02-21T22:19:08.770Z,95247.69
2024-02-21T22:21:36.016Z,95268.25
2024-02-21T22:24:03.111Z,95263.47
2024-02-21T22:26:30.178Z,95272.03
2024-02-21T22:28:58.783Z,95276.81
2024-02-21T22:31:26.101Z,95281.91
2024-02-21T22:33:54.328Z,95279.47
2024-02-21T22:36:23.092Z,95267.19
2024-02-21T22:38:52.188Z,95274.13
2024-02-21T22:41:20.646Z,95269.34
2024-02-21T22:43:47.784Z,95261.88
2024-02-21T22:46:14.879Z,95261.09
2024-02-21T22:48:42.437Z,95256.00
2024-02-21T22:51:09.949Z,95256.25
2024-02-21T22:53:37.213Z,95248.50
2024-02-21T22:56:04.675Z,95244.22
2024-02-21T22:58:31.856Z,95243.16
2024-02-21T23:00:59.050Z,95242.63
2024-02-21T23:03:26.235Z,95252.25
2024-02-21T23:06:11.909Z,95250.13
2024-02-21T23:08:39.496Z,95245.84
2024-02-21T23:11:06.903Z,95256.50
2024-02-21T23:13:35.590Z,95250.13
2024-02-21T23:16:03.195Z,95250.13
2024-02-21T23:18:30.354Z,95250.91
2024-02-21T23:20:57.456Z,95245.34
2024-02-21T23:23:24.552Z,95231.72
2024-02-21T23:25:51.727Z,95233.59
2024-02-21T23:28:18.879Z,95238.13
2024-02-21T23:30:46.030Z,95237.84
2024-02-21T23:33:13.193Z,95244.28
2024-02-21T23:35:40.315Z,95242.66
2024-02-21T23:38:09.531Z,95242.66
2024-02-21T23:40:36.740Z,95227.97
2024-02-21T23:43:03.958Z,95220.50
2024-02-21T23:45:31.036Z,95231.97
2024-02-21T23:47:58.131Z,95227.16
2024-02-21T23:50:25.276Z,95218.63
2024-02-21T23:52:52.523Z,95226.66
2024-02-21T23:55:19.614Z,95213.88
2024-02-21T23:57:47.120Z,95222.94
